Time,TemperatureF,DewpointF,PressureIn,WindDirection,WindDirectionDegrees,WindSpeedMPH,WindSpeedGustMPH,Humidity,HourlyPrecipIn,Conditions,Clouds,dailyrainin,SoftwareType,DateUTC
2013-03-28 00:07:00,59.7,28.0,30.08,West,270,0.0,0.0,30,0.00,,,0.00,WUHU21636XXSP,2013-03-28 07:07:00,
2013-03-28 00:18:00,59.1,27.5,30.09,West,270,0.0,0.0,30,0.00,,,0.00,WUHU21636XXSP,2013-03-28 07:18:00,
2013-03-28 00:28:00,58.8,26.4,30.09,West,270,0.0,0.0,29,0.00,,,0.00,WUHU21636XXSP,2013-03-28 07:28:00,
2013-03-28 00:39:00,57.3,25.9,30.08,WNW,292,0.0,0.0,30,0.00,,,0.00,WUHU21636XXSP,2013-03-28 07:39:00,
2013-03-28 00:49:00,56.6,26.1,30.08,WNW,292,0.0,0.0,31,0.00,,,0.00,WUHU21636XXSP,2013-03-28 07:49:00,
2013-03-28 00:59:00,56.8,25.5,30.08,NW,315,0.0,0.0,30,0.00,,,0.00,WUHU21636XXSP,2013-03-28 07:59:00,
2013-03-28 01:10:00,55.9,25.5,30.08,North,0,0.0,0.0,31,0.00,,,0.00,WUHU21636XXSP,2013-03-28 08:10:00,
2013-03-28 01:20:00,55.3,26.4,30.08,NE,45,0.0,0.0,33,0.00,,,0.00,WUHU21636XXSP,2013-03-28 08:20:00,
2013-03-28 01:31:00,56.1,26.4,30.08,NNE,22,0.0,0.0,32,0.00,,,0.00,WUHU21636XXSP,2013-03-28 08:31:00,
2013-03-28 01:42:00,55.5,25.9,30.08,NE,45,0.0,0.0,32,0.00,,,0.00,WUHU21636XXSP,2013-03-28 08:42:00,
2013-03-28 01:52:00,54.1,26.8,30.09,ENE,67,0.0,0.0,35,0.00,,,0.00,WUHU21636XXSP,2013-03-28 08:52:00,
2013-03-28 02:02:00,52.6,25.5,30.08,ENE,67,0.0,0.0,35,0.00,,,0.00,WUHU21636XXSP,2013-03-28 09:02:00,
2013-03-28 02:13:00,52.3,26.6,30.09,ENE,67,0.0,0.0,37,0.00,,,0.00,WUHU21636XXSP,2013-03-28 09:13:00,
2013-03-28 02:23:00,51.0,26.1,30.08,ENE,67,0.0,0.0,38,0.00,,,0.00,WUHU21636XXSP,2013-03-28 09:23:00,
2013-03-28 02:34:00,51.7,26.0,30.08,ENE,67,0.0,0.0,37,0.00,,,0.00,WUHU21636XXSP,2013-03-28 09:34:00,
2013-03-28 02:44:00,50.3,26.1,30.08,ENE,67,0.0,0.0,39,0.00,,,0.00,WUHU21636XXSP,2013-03-28 09:44:00,
2013-03-28 02:55:00,49.6,26.7,30.08,ENE,67,0.0,0.0,41,0.00,,,0.00,WUHU21636XXSP,2013-03-28 09:55:00,
2013-03-28 03:05:00,49.2,26.3,30.08,ENE,67,0.0,0.0,41,0.00,,,0.00,WUHU21636XXSP,2013-03-28 10:05:00,
2013-03-28 03:16:00,48.7,26.5,30.08,ENE,67,0.0,0.0,42,0.00,,,0.00,WUHU21636XXSP,2013-03-28 10:16:00,
2013-03-28 03:27:00,49.9,27.0,30.08,ENE,67,0.0,0.0,41,0.00,,,0.00,WUHU21636XXSP,2013-03-28 10:27:00,
2013-03-28 03:37:00,49.0,26.1,30.08,ENE,67,0.0,0.0,41,0.00,,,0.00,WUHU21636XXSP,2013-03-28 10:37:00,
2013-03-28 03:48:00,48.5,26.3,30.08,ENE,67,0.0,0.0,42,0.00,,,0.00,WUHU21636XXSP,2013-03-28 10:48:00,
2013-03-28 03:58:00,48.7,26.5,30.07,ENE,67,0.0,0.0,42,0.00,,,0.00,WUHU21636XXSP,2013-03-28 10:58:00,
2013-03-28 04:09:00,47.8,26.2,30.07,NNW,337,0.0,0.0,43,0.00,,,0.00,WUHU21636XXSP,2013-03-28 11:09:00,
2013-03-28 04:19:00,47.2,26.3,30.07,NW,315,0.0,0.0,44,0.00,,,0.00,WUHU21636XXSP,2013-03-28 11:19:00,
2013-03-28 04:30:00,47.1,27.3,30.07,WNW,292,0.0,0.0,46,0.00,,,0.00,WUHU21636XXSP,2013-03-28 11:30:00,
2013-03-28 04:40:00,46.3,26.5,30.08,WNW,292,0.0,0.0,46,0.00,,,0.00,WUHU21636XXSP,2013-03-28 11:40:00,
2013-03-28 04:51:00,46.0,26.8,30.08,WNW,292,0.0,0.0,47,0.00,,,0.00,WUHU21636XXSP,2013-03-28 11:51:00,
2013-03-28 05:01:00,46.0,26.8,30.09,WNW,292,0.0,0.0,47,0.00,,,0.00,WUHU21636XXSP,2013-03-28 12:01:00,
2013-03-28 05:12:00,45.8,26.6,30.08,WNW,292,0.0,0.0,47,0.00,,,0.00,WUHU21636XXSP,2013-03-28 12:12:00,
2013-03-28 05:22:00,45.6,27.0,30.09,WNW,292,0.0,0.0,48,0.00,,,0.00,WUHU21636XXSP,2013-03-28 12:22:00,
2013-03-28 05:33:00,44.9,26.8,30.09,WNW,292,0.0,0.0,49,0.00,,,0.00,WUHU21636XXSP,2013-03-28 12:33:00,
2013-03-28 05:43:00,44.0,26.5,30.09,WNW,292,0.0,0.0,50,0.00,,,0.00,WUHU21636XXSP,2013-03-28 12:43:00,
2013-03-28 05:53:00,44.5,27.0,30.09,WSW,247,0.0,0.0,50,0.00,,,0.00,WUHU21636XXSP,2013-03-28 12:53:00,
2013-03-28 06:04:00,44.4,26.9,30.09,WNW,292,0.0,0.0,50,0.00,,,0.00,WUHU21636XXSP,2013-03-28 13:04:00,
2013-03-28 06:14:00,43.6,27.1,30.10,WNW,292,0.0,0.0,52,0.00,,,0.00,WUHU21636XXSP,2013-03-28 13:14:00,
2013-03-28 06:25:00,44.0,27.5,30.10,WNW,292,0.0,0.0,52,0.00,,,0.00,WUHU21636XXSP,2013-03-28 13:25:00,
2013-03-28 06:35:00,45.1,27.5,30.11,WNW,292,0.0,0.0,50,0.00,,,0.00,WUHU21636XXSP,2013-03-28 13:35:00,
2013-03-28 06:46:00,48.0,28.6,30.11,WNW,292,0.0,0.0,47,0.00,,,0.00,WUHU21636XXSP,2013-03-28 13:46:00,
2013-03-28 06:56:00,53.7,29.1,30.11,WNW,292,0.0,0.0,39,0.00,,,0.00,WUHU21636XXSP,2013-03-28 13:56:00,
2013-03-28 07:07:00,57.9,29.4,30.11,WNW,292,0.0,0.0,34,0.00,,,0.00,WUHU21636XXSP,2013-03-28 14:07:00,
2013-03-28 07:17:00,60.6,28.8,30.11,WNW,292,0.0,0.0,30,0.00,,,0.00,WUHU21636XXSP,2013-03-28 14:17:00,
2013-03-28 07:28:00,68.5,32.1,30.11,WNW,292,0.0,0.0,26,0.00,,,0.00,WUHU21636XXSP,2013-03-28 14:28:00,
2013-03-28 07:38:00,68.3,31.0,30.11,WNW,292,0.0,0.0,25,0.00,,,0.00,WUHU21636XXSP,2013-03-28 14:38:00,
2013-03-28 07:49:00,71.4,31.6,30.12,WNW,292,0.0,0.0,23,0.00,,,0.00,WUHU21636XXSP,2013-03-28 14:49:00,
2013-03-28 07:59:00,74.3,31.7,30.11,WNW,292,0.0,0.0,21,0.00,,,0.00,WUHU21636XXSP,2013-03-28 14:59:00,
2013-03-28 08:10:00,73.4,29.8,30.11,WNW,292,0.0,0.0,20,0.00,,,0.00,WUHU21636XXSP,2013-03-28 15:10:00,
2013-03-28 08:20:00,68.3,29.0,30.11,South,180,0.0,0.0,23,0.00,,,0.00,WUHU21636XXSP,2013-03-28 15:20:00,
2013-03-28 08:31:00,67.5,30.3,30.12,ESE,112,0.0,0.0,25,0.00,,,0.00,WUHU21636XXSP,2013-03-28 15:31:00,
2013-03-28 08:42:00,67.3,31.1,30.12,SSE,157,0.0,0.0,26,0.00,,,0.00,WUHU21636XXSP,2013-03-28 15:42:00,
2013-03-28 08:52:00,69.8,32.3,30.12,SSW,202,0.0,0.0,25,0.00,,,0.00,WUHU21636XXSP,2013-03-28 15:52:00,
2013-03-28 09:03:00,75.8,33.0,30.13,South,180,0.0,0.0,21,0.00,,,0.00,WUHU21636XXSP,2013-03-28 16:03:00,
2013-03-28 09:13:00,70.6,29.8,30.13,North,0,0.0,0.0,22,0.00,,,0.00,WUHU21636XXSP,2013-03-28 16:13:00,
2013-03-28 09:24:00,70.4,29.7,30.13,NNW,337,0.0,0.0,22,0.00,,,0.00,WUHU21636XXSP,2013-03-28 16:24:00,
2013-03-28 09:34:00,71.6,29.5,30.12,SSE,157,0.0,1.2,21,0.00,,,0.00,WUHU21636XXSP,2013-03-28 16:34:00,
2013-03-28 09:44:00,70.7,29.9,30.12,WSW,247,0.0,3.0,22,0.00,,,0.00,WUHU21636XXSP,2013-03-28 16:44:00,
2013-03-28 09:55:00,75.8,29.3,30.12,NW,315,0.0,0.0,18,0.00,,,0.00,WUHU21636XXSP,2013-03-28 16:55:00,
2013-03-28 10:05:00,73.7,30.1,30.12,SE,135,0.0,0.0,20,0.00,,,0.00,WUHU21636XXSP,2013-03-28 17:05:00,
2013-03-28 10:16:00,69.6,27.8,30.11,WNW,292,0.0,0.0,21,0.00,,,0.00,WUHU21636XXSP,2013-03-28 17:16:00,
2013-03-28 10:27:00,76.0,24.9,30.11,WSW,247,0.0,0.0,15,0.00,,,0.00,WUHU21636XXSP,2013-03-28 17:27:00,
2013-03-28 10:37:00,72.7,26.7,30.11,NW,315,2.3,3.4,18,0.00,,,0.00,WUHU21636XXSP,2013-03-28 17:37:00,
2013-03-28 10:48:00,75.9,23.2,30.11,SE,135,0.6,3.0,14,0.00,,,0.00,WUHU21636XXSP,2013-03-28 17:48:00,
2013-03-28 10:58:00,74.5,23.8,30.11,West,270,0.0,0.8,15,0.00,,,0.00,WUHU21636XXSP,2013-03-28 17:58:00,
2013-03-28 11:08:00,73.8,23.1,30.11,WNW,292,0.0,0.0,15,0.00,,,0.00,WUHU21636XXSP,2013-03-28 18:08:00,
2013-03-28 11:19:00,75.3,22.7,30.11,West,270,0.0,0.0,14,0.00,,,0.00,WUHU21636XXSP,2013-03-28 18:19:00,
2013-03-28 11:29:00,77.7,24.6,30.11,WNW,292,0.0,0.0,14,0.00,,,0.00,WUHU21636XXSP,2013-03-28 18:29:00,
2013-03-28 11:40:00,74.0,23.4,30.11,WSW,247,0.0,0.0,15,0.00,,,0.00,WUHU21636XXSP,2013-03-28 18:40:00,
2013-03-28 11:50:00,76.0,23.2,30.11,WSW,247,0.0,0.0,14,0.00,,,0.00,WUHU21636XXSP,2013-03-28 18:50:00,
2013-03-28 12:01:00,74.7,23.9,30.10,WSW,247,0.0,0.0,15,0.00,,,0.00,WUHU21636XXSP,2013-03-28 19:01:00,
2013-03-28 12:12:00,74.5,25.3,30.10,West,270,0.0,0.0,16,0.00,,,0.00,WUHU21636XXSP,2013-03-28 19:12:00,
2013-03-28 12:22:00,75.9,27.9,30.10,North,0,0.0,0.0,17,0.00,,,0.00,WUHU21636XXSP,2013-03-28 19:22:00,
2013-03-28 12:32:00,75.3,26.0,30.10,North,0,0.0,0.0,16,0.00,,,0.00,WUHU21636XXSP,2013-03-28 19:32:00,
2013-03-28 12:43:00,77.6,26.2,30.10,WNW,292,0.0,0.0,15,0.00,,,0.00,WUHU21636XXSP,2013-03-28 19:43:00,
2013-03-28 12:53:00,77.1,24.1,30.09,WNW,292,0.0,2.2,14,0.00,,,0.00,WUHU21636XXSP,2013-03-28 19:53:00,
2013-03-28 13:04:00,74.9,24.1,30.10,WSW,247,0.0,0.0,15,0.00,,,0.00,WUHU21636XXSP,2013-03-28 20:04:00,
2013-03-28 13:14:00,75.5,24.5,30.09,WSW,247,0.0,0.0,15,0.00,,,0.00,WUHU21636XXSP,2013-03-28 20:14:00,
2013-03-28 13:25:00,75.5,22.9,30.09,SW,225,0.0,0.0,14,0.00,,,0.00,WUHU21636XXSP,2013-03-28 20:25:00,
2013-03-28 13:35:00,76.5,17.9,30.09,WNW,292,2.3,3.0,11,0.00,,,0.00,WUHU21636XXSP,2013-03-28 20:35:00,
2013-03-28 13:46:00,74.3,20.1,30.09,NW,315,0.0,3.0,13,0.00,,,0.00,WUHU21636XXSP,2013-03-28 20:46:00,
2013-03-28 13:57:00,73.9,23.3,30.08,West,270,0.0,0.0,15,0.00,,,0.00,WUHU21636XXSP,2013-03-28 20:57:00,
2013-03-28 14:07:00,76.2,23.4,30.08,West,270,0.0,0.0,14,0.00,,,0.00,WUHU21636XXSP,2013-03-28 21:07:00,
2013-03-28 14:18:00,76.2,23.4,30.08,West,270,0.0,0.0,14,0.00,,,0.00,WUHU21636XXSP,2013-03-28 21:18:00,
2013-03-28 14:28:00,77.4,22.6,30.07,South,180,0.0,0.0,13,0.00,,,0.00,WUHU21636XXSP,2013-03-28 21:28:00,
2013-03-28 14:39:00,78.2,19.1,30.06,WSW,247,0.0,0.0,11,0.00,,,0.00,WUHU21636XXSP,2013-03-28 21:39:00,
2013-03-28 14:49:00,77.3,16.2,30.06,WNW,292,0.0,0.0,10,0.00,,,0.00,WUHU21636XXSP,2013-03-28 21:49:00,
2013-03-28 15:00:00,78.1,16.8,30.06,NW,315,0.0,0.0,10,0.00,,,0.00,WUHU21636XXSP,2013-03-28 22:00:00,
2013-03-28 15:10:00,77.5,16.3,30.06,WSW,247,0.0,0.0,10,0.00,,,0.00,WUHU21636XXSP,2013-03-28 22:10:00,
2013-03-28 15:20:00,79.6,15.5,30.06,West,270,0.0,0.0,9,0.00,,,0.00,WUHU21636XXSP,2013-03-28 22:20:00,
2013-03-28 15:31:00,78.2,14.4,30.06,SSW,202,2.3,3.0,9,0.00,,,0.00,WUHU21636XXSP,2013-03-28 22:31:00,
2013-03-28 15:42:00,77.5,13.8,30.06,West,270,0.0,3.0,9,0.00,,,0.00,WUHU21636XXSP,2013-03-28 22:42:00,
2013-03-28 15:52:00,76.2,15.3,30.06,West,270,0.0,0.0,10,0.00,,,0.00,WUHU21636XXSP,2013-03-28 22:52:00,
2013-03-28 16:03:00,76.8,15.8,30.06,West,270,0.0,0.0,10,0.00,,,0.00,WUHU21636XXSP,2013-03-28 23:03:00,
2013-03-28 16:13:00,76.6,15.7,30.06,SW,225,0.0,0.0,10,0.00,,,0.00,WUHU21636XXSP,2013-03-28 23:13:00,
2013-03-28 16:23:00,74.4,16.2,30.06,West,270,0.0,0.0,11,0.00,,,0.00,WUHU21636XXSP,2013-03-28 23:23:00,
2013-03-28 16:34:00,74.7,16.5,30.07,WNW,292,0.0,0.0,11,0.00,,,0.00,WUHU21636XXSP,2013-03-28 23:34:00,
2013-03-28 16:44:00,72.9,15.0,30.06,West,270,0.0,0.0,11,0.00,,,0.00,WUHU21636XXSP,2013-03-28 23:44:00,
2013-03-28 16:55:00,73.6,19.6,30.06,West,270,0.0,0.0,13,0.00,,,0.00,WUHU21636XXSP,2013-03-28 23:55:00,
2013-03-28 17:05:00,75.0,18.7,30.06,West,270,0.0,0.0,12,0.00,,,0.00,WUHU21636XXSP,2013-03-29 00:05:00,
2013-03-28 17:16:00,74.3,18.2,30.06,WNW,292,0.0,0.0,12,0.00,,,0.00,WUHU21636XXSP,2013-03-29 00:16:00,
2013-03-28 17:26:00,73.0,17.2,30.06,WNW,292,0.6,0.8,12,0.00,,,0.00,WUHU21636XXSP,2013-03-29 00:26:00,
2013-03-28 17:37:00,70.3,17.0,30.07,West,270,0.0,0.8,13,0.00,,,0.00,WUHU21636XXSP,2013-03-29 00:37:00,
2013-03-28 17:47:00,69.4,16.2,30.07,West,270,0.0,0.0,13,0.00,,,0.00,WUHU21636XXSP,2013-03-29 00:47:00,
2013-03-28 17:58:00,68.6,17.4,30.07,West,270,0.0,0.0,14,0.00,,,0.00,WUHU21636XXSP,2013-03-29 00:58:00,
2013-03-28 18:08:00,68.1,18.6,30.08,WNW,292,0.0,0.0,15,0.00,,,0.00,WUHU21636XXSP,2013-03-29 01:08:00,
2013-03-28 18:19:00,67.4,18.0,30.07,West,270,0.0,0.0,15,0.00,,,0.00,WUHU21636XXSP,2013-03-29 01:19:00,
2013-03-28 18:29:00,66.5,18.8,30.08,WNW,292,0.0,0.0,16,0.00,,,0.00,WUHU21636XXSP,2013-03-29 01:29:00,
2013-03-28 18:40:00,65.5,19.4,30.08,West,270,0.0,0.0,17,0.00,,,0.00,WUHU21636XXSP,2013-03-29 01:40:00,
2013-03-28 18:50:00,64.7,18.8,30.09,WSW,247,0.0,0.0,17,0.00,,,0.00,WUHU21636XXSP,2013-03-29 01:50:00,
2013-03-28 19:01:00,64.0,19.6,30.09,WNW,292,0.0,0.0,18,0.00,,,0.00,WUHU21636XXSP,2013-03-29 02:01:00,
2013-03-28 19:11:00,63.4,19.1,30.09,West,270,0.0,0.0,18,0.00,,,0.00,WUHU21636XXSP,2013-03-29 02:11:00,
2013-03-28 19:22:00,62.4,19.5,30.09,NW,315,0.0,0.0,19,0.00,,,0.00,WUHU21636XXSP,2013-03-29 02:22:00,
2013-03-28 19:32:00,61.5,20.0,30.09,WNW,292,0.0,0.0,20,0.00,,,0.00,WUHU21636XXSP,2013-03-29 02:32:00,
2013-03-28 19:43:00,60.7,19.3,30.09,WNW,292,0.0,0.0,20,0.00,,,0.00,WUHU21636XXSP,2013-03-29 02:43:00,
2013-03-28 19:53:00,60.0,19.9,30.10,WNW,292,0.0,0.0,21,0.00,,,0.00,WUHU21636XXSP,2013-03-29 02:53:00,
2013-03-28 20:04:00,58.9,18.9,30.10,West,270,0.0,0.0,21,0.00,,,0.00,WUHU21636XXSP,2013-03-29 03:04:00,
2013-03-28 20:14:00,58.9,20.0,30.10,WNW,292,0.0,0.0,22,0.00,,,0.00,WUHU21636XXSP,2013-03-29 03:14:00,
2013-03-28 20:24:00,58.9,21.0,30.10,WNW,292,0.0,0.0,23,0.00,,,0.00,WUHU21636XXSP,2013-03-29 03:24:00,
2013-03-28 20:35:00,59.1,21.2,30.11,WNW,292,0.0,0.0,23,0.00,,,0.00,WUHU21636XXSP,2013-03-29 03:35:00,
2013-03-28 20:45:00,59.8,21.8,30.11,WNW,292,0.0,0.0,23,0.00,,,0.00,WUHU21636XXSP,2013-03-29 03:45:00,
2013-03-28 20:56:00,59.8,21.8,30.11,WNW,292,0.0,0.0,23,0.00,,,0.00,WUHU21636XXSP,2013-03-29 03:56:00,
2013-03-28 21:07:00,59.1,22.2,30.11,West,270,0.0,0.0,24,0.00,,,0.00,WUHU21636XXSP,2013-03-29 04:07:00,
2013-03-28 21:17:00,59.5,22.5,30.11,West,270,0.0,0.0,24,0.00,,,0.00,WUHU21636XXSP,2013-03-29 04:17:00,
2013-03-28 21:28:00,60.6,22.5,30.11,WNW,292,0.0,0.0,23,0.00,,,0.00,WUHU21636XXSP,2013-03-29 04:28:00,
2013-03-28 21:38:00,60.9,22.7,30.12,WNW,292,0.0,0.0,23,0.00,,,0.00,WUHU21636XXSP,2013-03-29 04:38:00,
2013-03-28 21:49:00,60.7,22.6,30.12,WNW,292,0.0,0.0,23,0.00,,,0.00,WUHU21636XXSP,2013-03-29 04:49:00,
2013-03-28 21:59:00,60.4,23.3,30.13,WNW,292,0.0,0.0,24,0.00,,,0.00,WUHU21636XXSP,2013-03-29 04:59:00,
2013-03-28 22:09:00,59.8,22.8,30.12,WNW,292,0.0,0.0,24,0.00,,,0.00,WUHU21636XXSP,2013-03-29 05:09:00,
2013-03-28 22:20:00,60.0,23.0,30.13,WNW,292,0.0,0.0,24,0.00,,,0.00,WUHU21636XXSP,2013-03-29 05:20:00,
2013-03-28 22:30:00,60.7,23.5,30.13,NW,315,0.0,0.0,24,0.00,,,0.00,WUHU21636XXSP,2013-03-29 05:30:00,
2013-03-28 22:41:00,59.8,19.7,30.14,NE,45,0.0,0.0,21,0.00,,,0.00,WUHU21636XXSP,2013-03-29 05:41:00,
2013-03-28 22:52:00,58.9,18.9,30.13,ENE,67,0.0,0.0,21,0.00,,,0.00,WUHU21636XXSP,2013-03-29 05:52:00,
2013-03-28 23:02:00,58.8,18.9,30.14,ESE,112,0.0,0.0,21,0.00,,,0.00,WUHU21636XXSP,2013-03-29 06:02:00,
2013-03-28 23:13:00,58.2,19.4,30.14,ENE,67,0.0,0.0,22,0.00,,,0.00,WUHU21636XXSP,2013-03-29 06:13:00,
2013-03-28 23:23:00,59.7,20.7,30.14,ESE,112,0.0,0.0,22,0.00,,,0.00,WUHU21636XXSP,2013-03-29 06:23:00,
2013-03-28 23:33:00,58.8,19.9,30.14,South,180,0.0,0.0,22,0.00,,,0.00,WUHU21636XXSP,2013-03-29 06:33:00,
2013-03-28 23:44:00,58.0,21.3,30.14,South,180,0.0,0.0,24,0.00,,,0.00,WUHU21636XXSP,2013-03-29 06:44:00,
2013-03-28 23:54:00,57.7,21.0,30.14,South,180,0.0,0.0,24,0.00,,,0.00,WUHU21636XXSP,2013-03-29 06:54:00,